Main page
METAR-TAF:

METAR-TAF

Airports :

Fresno Yosemite International Airport

Fresno, California, United States

latitude: 36-46-48N, longitude: 119-43-10W, elevation: 331 ft

Current weather observation

The report was made 53 minutes ago, at 20:53 UTC
Wind 6 mph from variable directions
Temperature 100°F
Humidity 27%
Pressure 29.85 in. Hg
Visibility: 10 miles
Scattered clouds at a height of 12000 ft
Broken clouds at a height of 15000 ft
Overcast at a height of 20000 ft

METAR: KFAT 132053Z VRB05KT 10SM SCT120 BKN150 OVC200 38/16 A2985 RMK AO2 SLP102 T03780156 51006

Time: 14:46 (21:46 UTC)

Forecast

The report was made 4 hours and 26 minutes ago, at 17:20 UTC
Forecast valid from 13 at 18 UTC to 14 at 18 UTC
Wind 9 mph from the Northwest
Visibility: 6 miles
Scattered clouds at a height of 12000 ft
Broken clouds at a height of 20000 ft

TAF: KFAT 131720Z 1318/1418 31008KT P6SM SCT120 BKN200

Weather observations and forecasts of more than 4000 airports (METAR and TAF reports).

The available stations are represented by yellow and red dots on the map.

Hover mouse over dot to see the name of the station.

Then click to see weather observations and forecasts.

To change the map : click on the green buttons with a black cross to zoom in, on the green button with a dash to zoom out, or on the green arrows for adjacent maps.


METAR-TAF: